Time;durP1;ratioP1;P1;durP2;ratioP2;P2;SDS_P1;SDS_P2;PMS_P1;PMS_P2;Temp;Humidity;BMP_temperature;BMP_pressure;BME280_temperature;BME280_humidity;BME280_pressure;Samples;Min_cycle;Max_cycle;Signal;HPM_P1;HPM_P2
2021/12/11 00:02:29;;;;;;;1.38;0.75;;;7.90;97.50;;;;;;5032776;28;20447;-51
2021/12/11 00:04:57;;;;;;;0.40;0.40;;;7.90;97.40;;;;;;5041548;28;20397;-51
2021/12/11 00:07:26;;;;;;;2.42;1.67;;;7.90;97.50;;;;;;5036157;28;20041;-50
2021/12/11 00:10:09;;;;;;;4.03;1.20;;;7.90;97.40;;;;;;5040101;28;20095;-50
2021/12/11 00:12:45;;;;;;;0.70;0.70;;;7.90;97.40;;;;;;5036386;28;20080;-51
2021/12/11 00:15:18;;;;;;;0.40;0.40;;;7.90;97.40;;;;;;5041038;28;20114;-51
2021/12/11 00:17:45;;;;;;;0.93;0.80;;;7.90;97.40;;;;;;5037110;28;20084;-51
2021/12/11 00:20:25;;;;;;;0.77;0.77;;;7.90;97.40;;;;;;5036167;28;20029;-51
2021/12/11 00:22:51;;;;;;;0.50;0.50;;;7.90;97.40;;;;;;5035917;28;20344;-51
2021/12/11 00:25:18;;;;;;;3.72;1.38;;;7.90;97.40;;;;;;5038308;28;20474;-51
2021/12/11 00:27:46;;;;;;;0.75;0.75;;;7.90;97.50;;;;;;5034019;28;20037;-51
2021/12/11 00:30:24;;;;;;;0.57;0.55;;;7.90;97.40;;;;;;5042838;28;20075;-51
2021/12/11 00:33:03;;;;;;;1.77;1.02;;;7.90;97.40;;;;;;5035254;28;20032;-51
2021/12/11 00:35:29;;;;;;;1.08;0.70;;;7.90;97.40;;;;;;5037492;28;20413;-50
2021/12/11 00:38:11;;;;;;;1.00;0.80;;;7.90;97.30;;;;;;5041023;28;20447;-50
2021/12/11 00:40:39;;;;;;;0.55;0.55;;;7.90;97.30;;;;;;5036533;28;20029;-51
2021/12/11 00:43:08;;;;;;;0.60;0.60;;;7.90;97.30;;;;;;5035078;28;20049;-51
2021/12/11 00:45:39;;;;;;;0.60;0.60;;;7.90;97.30;;;;;;5040605;28;20347;-51
2021/12/11 00:48:09;;;;;;;1.15;1.05;;;7.90;97.30;;;;;;5036650;28;20033;-51
2021/12/11 00:51:00;;;;;;;1.08;0.95;;;7.90;97.40;;;;;;5036572;28;20036;-51
2021/12/11 00:53:31;;;;;;;1.42;0.90;;;7.90;97.40;;;;;;5033593;28;20026;-51
2021/12/11 00:56:01;;;;;;;1.52;1.42;;;7.90;97.30;;;;;;5040714;28;20053;-51
2021/12/11 00:58:28;;;;;;;;;;;7.90;97.40;;;;;;5037933;28;20076;-51
2021/12/11 01:01:07;;;;;;;1.08;0.55;;;7.90;97.30;;;;;;5042534;28;20015;-51
2021/12/11 01:03:36;;;;;;;4.93;0.77;;;7.90;97.30;;;;;;5038988;28;20028;-51
2021/12/11 01:06:11;;;;;;;0.40;0.40;;;7.90;97.30;;;;;;5036946;28;20331;-50
2021/12/11 01:08:42;;;;;;;2.28;0.50;;;7.90;97.30;;;;;;5035906;28;20083;-50
2021/12/11 01:11:24;;;;;;;0.30;0.30;;;7.90;97.30;;;;;;5040407;28;20022;-51
2021/12/11 01:14:18;;;;;;;1.38;1.05;;;7.90;97.30;;;;;;5035657;28;20022;-51
2021/12/11 01:16:51;;;;;;;0.70;0.70;;;7.90;97.30;;;;;;5033251;28;20029;-51
2021/12/11 01:19:19;;;;;;;0.47;0.47;;;7.90;97.30;;;;;;5040926;28;20394;-51
2021/12/11 01:21:56;;;;;;;1.02;0.55;;;7.90;97.30;;;;;;5039986;28;20447;-51
2021/12/11 01:24:41;;;;;;;0.95;0.68;;;7.90;97.30;;;;;;5036833;28;20443;-50
2021/12/11 01:27:08;;;;;;;1.42;0.77;;;7.90;97.30;;;;;;5029002;28;20347;-51
2021/12/11 01:29:34;;;;;;;0.50;0.50;;;7.90;97.30;;;;;;5041858;28;20120;-51
2021/12/11 01:32:01;;;;;;;0.50;0.50;;;7.90;97.60;;;;;;5040190;28;20407;-51
2021/12/11 01:34:28;;;;;;;2.42;0.60;;;7.90;97.30;;;;;;5040515;28;20355;-50
2021/12/11 01:36:55;;;;;;;2.65;0.70;;;7.90;97.20;;;;;;5036287;28;20399;-51
2021/12/11 01:39:31;;;;;;;3.38;0.93;;;7.90;97.20;;;;;;5038801;28;20022;-51
2021/12/11 01:41:57;;;;;;;1.10;0.80;;;7.90;97.30;;;;;;5032535;28;20030;-51
2021/12/11 01:44:29;;;;;;;0.45;0.45;;;7.90;97.30;;;;;;5040607;28;20091;-51
2021/12/11 01:47:12;;;;;;;1.92;0.88;;;7.90;97.30;;;;;;5030785;28;20029;-51
2021/12/11 01:49:42;;;;;;;1.75;0.75;;;7.90;97.30;;;;;;5035557;28;20033;-50
2021/12/11 01:52:29;;;;;;;0.63;0.50;;;7.90;97.20;;;;;;5041606;28;20344;-50
2021/12/11 01:55:00;;;;;;;0.73;0.55;;;7.90;97.20;;;;;;5039992;28;20397;-51
2021/12/11 01:57:29;;;;;;;0.40;0.40;;;7.90;97.20;;;;;;5031910;28;20048;-50
2021/12/11 02:00:07;;;;;;;0.95;0.90;;;7.90;97.30;;;;;;5039949;28;20060;-51
2021/12/11 02:02:37;;;;;;;4.20;0.90;;;7.90;97.30;;;;;;5039328;28;20079;-51
2021/12/11 02:05:05;;;;;;;0.70;0.70;;;7.90;97.30;;;;;;5040357;28;20036;-51
2021/12/11 02:07:42;;;;;;;0.40;0.40;;;7.90;97.30;;;;;;5039115;28;20045;-51
2021/12/11 02:10:20;;;;;;;2.53;0.90;;;7.90;97.20;;;;;;5037837;28;20112;-51
2021/12/11 02:12:46;;;;;;;1.52;0.90;;;7.90;97.30;;;;;;5029041;28;20048;-50
2021/12/11 02:15:19;;;;;;;0.38;0.38;;;7.90;97.20;;;;;;5040419;28;20029;-51
2021/12/11 02:17:52;;;;;;;1.58;0.82;;;7.90;97.30;;;;;;5037494;28;20403;-51
2021/12/11 02:20:32;;;;;;;0.47;0.47;;;7.90;97.30;;;;;;5035793;28;20025;-50
2021/12/11 02:22:59;;;;;;;0.35;0.35;;;7.90;97.20;;;;;;5042283;28;20194;-51
2021/12/11 02:25:40;;;;;;;2.72;1.02;;;7.90;97.20;;;;;;5040991;28;20029;-51
2021/12/11 02:28:21;;;;;;;2.95;1.10;;;7.90;97.30;;;;;;5034430;28;20088;-51
2021/12/11 02:31:01;;;;;;;;;;;7.90;97.20;;;;;;5035416;28;20544;-51
2021/12/11 02:33:30;;;;;;;2.03;1.05;;;7.90;97.30;;;;;;5041331;28;19919;-51
2021/12/11 02:36:18;;;;;;;0.65;0.60;;;7.90;97.20;;;;;;5038070;28;20033;-51
2021/12/11 02:39:06;;;;;;;1.00;0.90;;;7.90;97.30;;;;;;5040866;28;20029;-51
2021/12/11 02:41:48;;;;;;;0.30;0.30;;;7.90;97.30;;;;;;5042434;28;20021;-50
2021/12/11 02:44:50;;;;;;;1.05;0.90;;;7.90;97.30;;;;;;5034509;28;20041;-51
2021/12/11 02:47:24;;;;;;;2.72;0.98;;;7.90;97.30;;;;;;5044728;28;20021;-51
2021/12/11 02:50:00;;;;;;;1.05;0.95;;;7.90;97.40;;;;;;5034244;28;20379;-51
2021/12/11 02:52:54;;;;;;;2.00;0.77;;;7.80;97.30;;;;;;5045038;28;20040;-51
2021/12/11 02:55:45;;;;;;;0.70;0.70;;;7.90;97.30;;;;;;5043975;28;20036;-51
2021/12/11 02:58:18;;;;;;;0.65;0.65;;;7.90;97.40;;;;;;5037019;28;20105;-51
2021/12/11 03:00:53;;;;;;;0.65;0.65;;;7.90;97.40;;;;;;5039851;28;20462;-51
2021/12/11 03:03:26;;;;;;;0.47;0.47;;;7.90;97.30;;;;;;5044594;28;20104;-51
2021/12/11 03:06:02;;;;;;;0.30;0.30;;;7.90;97.30;;;;;;5038093;28;20021;-50
2021/12/11 03:08:27;;;;;;;2.13;1.48;;;7.90;97.30;;;;;;5042492;28;20076;-50
2021/12/11 03:11:04;;;;;;;0.52;0.52;;;7.90;97.30;;;;;;5040180;28;20021;-51
2021/12/11 03:13:31;;;;;;;2.28;1.05;;;7.90;97.40;;;;;;5036204;28;20060;-51
2021/12/11 03:15:58;;;;;;;0.85;0.75;;;7.90;97.40;;;;;;5042285;28;20112;-51
2021/12/11 03:18:24;;;;;;;0.70;0.70;;;7.90;97.40;;;;;;5042570;28;20021;-51
2021/12/11 03:20:52;;;;;;;1.00;0.90;;;7.90;97.40;;;;;;5031865;28;20032;-51
2021/12/11 03:23:18;;;;;;;0.52;0.47;;;7.90;97.40;;;;;;5037864;28;20029;-51
2021/12/11 03:25:45;;;;;;;0.60;0.60;;;7.90;97.50;;;;;;5040050;28;20410;-51
2021/12/11 03:28:13;;;;;;;0.73;0.68;;;7.90;97.40;;;;;;5039255;28;20486;-51
2021/12/11 03:30:45;;;;;;;0.93;0.65;;;7.90;97.40;;;;;;5043310;28;20036;-51
2021/12/11 03:33:15;;;;;;;1.98;1.08;;;7.90;97.40;;;;;;5038602;28;20031;-51
2021/12/11 03:35:41;;;;;;;1.23;0.77;;;7.90;97.50;;;;;;5039802;28;20108;-51
2021/12/11 03:38:09;;;;;;;0.80;0.80;;;7.90;97.40;;;;;;5043903;28;20090;-51
2021/12/11 03:40:35;;;;;;;1.73;0.82;;;7.90;97.50;;;;;;5042022;28;20032;-51
2021/12/11 03:43:07;;;;;;;0.98;0.82;;;7.90;97.50;;;;;;5037250;28;20548;-51
2021/12/11 03:45:37;;;;;;;0.75;0.75;;;7.90;97.50;;;;;;5038985;28;20451;-51
2021/12/11 03:48:16;;;;;;;0.73;0.73;;;7.90;97.50;;;;;;5035322;28;20056;-51
2021/12/11 03:50:42;;;;;;;2.80;1.25;;;7.90;97.50;;;;;;5038656;28;20044;-51
2021/12/11 03:53:08;;;;;;;0.70;0.70;;;7.90;97.40;;;;;;5039077;28;20425;-51
2021/12/11 03:55:40;;;;;;;0.85;0.65;;;7.90;97.60;;;;;;5039755;28;20104;-51
2021/12/11 03:58:07;;;;;;;0.82;0.82;;;7.90;97.50;;;;;;5039876;28;20045;-50
2021/12/11 04:00:47;;;;;;;1.00;0.90;;;7.90;97.50;;;;;;5032842;28;20081;-51
2021/12/11 04:03:16;;;;;;;1.08;0.95;;;7.90;97.50;;;;;;5036677;28;20439;-51
2021/12/11 04:05:44;;;;;;;1.05;1.00;;;7.90;97.60;;;;;;5041686;28;20116;-51
2021/12/11 04:08:14;;;;;;;0.85;0.85;;;7.90;97.50;;;;;;5042117;28;20029;-50
2021/12/11 04:10:40;;;;;;;0.82;0.50;;;7.90;97.50;;;;;;5039293;28;20034;-50
2021/12/11 04:13:08;;;;;;;0.65;0.65;;;7.90;97.60;;;;;;5037940;28;20406;-50
2021/12/11 04:15:35;;;;;;;0.85;0.65;;;7.90;97.60;;;;;;5035374;28;20021;-50
2021/12/11 04:18:01;;;;;;;0.50;0.50;;;7.80;97.50;;;;;;5043041;28;20071;-51
2021/12/11 04:20:30;;;;;;;0.50;0.50;;;7.90;97.60;;;;;;5041249;28;20122;-51
2021/12/11 04:22:56;;;;;;;2.80;0.73;;;7.90;97.60;;;;;;5036868;28;20400;-51
2021/12/11 04:25:26;;;;;;;0.80;0.80;;;7.90;97.60;;;;;;5041542;28;20044;-51
2021/12/11 04:27:53;;;;;;;1.05;0.90;;;7.80;97.50;;;;;;5039926;28;20094;-51
2021/12/11 04:30:21;;;;;;;1.80;1.02;;;7.80;97.50;;;;;;5039492;28;20192;-51
2021/12/11 04:32:49;;;;;;;0.70;0.70;;;7.90;97.60;;;;;;5036011;28;20025;-51
2021/12/11 04:35:16;;;;;;;3.97;0.70;;;7.90;97.60;;;;;;5040192;28;20039;-51
2021/12/11 04:37:43;;;;;;;4.03;0.63;;;7.90;97.70;;;;;;5042303;28;20118;-51
2021/12/11 04:40:13;;;;;;;0.40;0.40;;;7.90;97.60;;;;;;5040122;28;20025;-50
2021/12/11 04:45:19;;;;;;;0.75;0.75;;;7.90;97.50;;;;;;5032851;28;20033;-51
2021/12/11 04:47:57;;;;;;;0.60;0.60;;;7.90;97.60;;;;;;5039724;28;20072;-51
2021/12/11 04:50:38;;;;;;;1.63;0.80;;;7.90;97.60;;;;;;5038642;28;20041;-51
2021/12/11 04:53:08;;;;;;;0.65;0.63;;;7.80;97.60;;;;;;5035542;28;20053;-51
2021/12/11 05:08:37;;;;;;;0.35;0.35;;;7.90;97.70;;;;;;5040729;28;20033;-51
2021/12/11 05:11:10;;;;;;;1.75;0.88;;;7.90;97.60;;;;;;5038807;28;20459;-51
2021/12/11 05:13:35;;;;;;;0.80;0.80;;;7.90;97.70;;;;;;5040351;28;20028;-50
2021/12/11 05:16:04;;;;;;;0.40;0.40;;;7.90;97.70;;;;;;5030189;28;20032;-51
2021/12/11 05:18:32;;;;;;;0.60;0.60;;;7.80;97.70;;;;;;5042128;28;20057;-51
2021/12/11 05:21:03;;;;;;;1.58;1.02;;;7.90;97.70;;;;;;5039098;28;20021;-51
2021/12/11 05:23:29;;;;;;;0.75;0.75;;;7.90;97.70;;;;;;5032096;28;20413;-51
2021/12/11 05:25:56;;;;;;;1.20;1.00;;;7.90;97.70;;;;;;5039430;28;20034;-51
2021/12/11 05:28:22;;;;;;;3.00;1.10;;;7.80;97.70;;;;;;5040734;28;20058;-51
2021/12/11 05:30:49;;;;;;;0.90;0.65;;;7.80;97.80;;;;;;5033368;28;20475;-51
2021/12/11 05:33:16;;;;;;;1.15;0.60;;;7.90;97.80;;;;;;5039687;28;20083;-51
2021/12/11 05:35:43;;;;;;;0.77;0.50;;;7.90;97.90;;;;;;5033845;28;20435;-51
2021/12/11 05:38:11;;;;;;;0.50;0.50;;;7.90;97.70;;;;;;5042199;28;20025;-51
2021/12/11 05:40:40;;;;;;;0.30;0.30;;;7.90;97.70;;;;;;5039889;28;20032;-51
2021/12/11 05:43:08;;;;;;;0.63;0.50;;;7.90;97.80;;;;;;5040019;28;20057;-51
2021/12/11 05:45:34;;;;;;;0.50;0.50;;;7.90;97.90;;;;;;5032819;28;20029;-51
2021/12/11 05:48:00;;;;;;;2.50;0.50;;;7.90;97.70;;;;;;5036194;28;20080;-51
2021/12/11 05:50:35;;;;;;;0.40;0.40;;;7.90;97.80;;;;;;5042345;28;20035;-50
2021/12/11 05:53:02;;;;;;;0.40;0.40;;;7.90;97.80;;;;;;5039824;28;20022;-51
2021/12/11 05:55:30;;;;;;;0.32;0.32;;;7.90;97.80;;;;;;5034004;28;20028;-51
2021/12/11 05:57:58;;;;;;;0.68;0.60;;;7.90;97.80;;;;;;5044595;28;20036;-51
2021/12/11 06:00:41;;;;;;;0.85;0.80;;;7.90;97.80;;;;;;5036186;28;20041;-51
2021/12/11 06:03:08;;;;;;;0.65;0.65;;;7.90;97.70;;;;;;5041835;28;20390;-51
2021/12/11 06:05:35;;;;;;;0.80;0.60;;;7.80;97.80;;;;;;5042447;28;20048;-51
2021/12/11 06:08:01;;;;;;;1.48;1.02;;;7.90;97.70;;;;;;5031222;28;20033;-50
2021/12/11 06:10:27;;;;;;;0.70;0.70;;;7.90;97.80;;;;;;5042597;28;20261;-50
2021/12/11 06:12:56;;;;;;;0.60;0.60;;;7.80;97.70;;;;;;5044943;28;20526;-50
2021/12/11 06:15:23;;;;;;;0.82;0.55;;;7.80;97.70;;;;;;5034118;28;20029;-51
2021/12/11 06:17:49;;;;;;;1.17;0.70;;;7.80;97.80;;;;;;5032746;28;20060;-51
2021/12/11 06:20:21;;;;;;;0.60;0.60;;;7.80;97.80;;;;;;5043137;28;20117;-51
2021/12/11 06:22:47;;;;;;;0.70;0.70;;;7.90;97.80;;;;;;5039325;28;20080;-50
2021/12/11 06:25:17;;;;;;;1.05;0.85;;;7.90;97.80;;;;;;5043707;28;20078;-51
2021/12/11 06:27:44;;;;;;;0.63;0.60;;;7.90;97.90;;;;;;5040417;28;20136;-50
2021/12/11 06:30:11;;;;;;;0.80;0.80;;;7.90;97.90;;;;;;5040351;28;20037;-51
2021/12/11 06:32:36;;;;;;;1.65;0.90;;;7.90;97.90;;;;;;5042565;28;20079;-51
2021/12/11 06:35:13;;;;;;;1.33;1.23;;;7.90;98.00;;;;;;5045303;28;20112;-51
2021/12/11 06:37:39;;;;;;;1.13;1.05;;;7.90;97.90;;;;;;5040237;28;20075;-51
2021/12/11 06:40:05;;;;;;;0.93;0.90;;;7.90;97.90;;;;;;5028172;28;20021;-50
2021/12/11 06:42:31;;;;;;;0.93;0.80;;;7.90;97.90;;;;;;5044350;28;20090;-50
2021/12/11 06:44:57;;;;;;;1.08;0.88;;;7.90;97.90;;;;;;5037186;28;20451;-50
2021/12/11 06:47:23;;;;;;;0.80;0.77;;;7.90;98.20;;;;;;5038557;28;20025;-51
2021/12/11 06:49:49;;;;;;;0.85;0.85;;;7.90;97.90;;;;;;5031980;28;20301;-51
2021/12/11 06:52:18;;;;;;;0.80;0.80;;;7.80;97.90;;;;;;5032561;28;20025;-50
2021/12/11 06:54:44;;;;;;;1.00;1.00;;;7.90;97.90;;;;;;5031832;28;20286;-51
2021/12/11 06:57:10;;;;;;;1.60;1.08;;;7.90;97.90;;;;;;5031055;28;20080;-50
2021/12/11 06:59:36;;;;;;;2.30;1.25;;;7.80;97.90;;;;;;5025056;28;20461;-50
2021/12/11 07:02:03;;;;;;;1.73;1.30;;;7.80;97.80;;;;;;5024197;28;20482;-50
2021/12/11 07:04:28;;;;;;;0.85;0.85;;;7.90;98.00;;;;;;5027013;28;20346;-51
2021/12/11 07:06:55;;;;;;;1.40;1.30;;;7.90;97.90;;;;;;5023948;28;20242;-51
2021/12/11 07:09:23;;;;;;;1.10;1.00;;;7.90;97.90;;;;;;5024142;28;20132;-51
2021/12/11 07:11:51;;;;;;;1.52;1.17;;;7.90;97.90;;;;;;5024516;28;20079;-51
2021/12/11 07:14:18;;;;;;;1.17;1.02;;;7.90;97.90;;;;;;5024170;28;20116;-51
2021/12/11 07:16:45;;;;;;;1.20;1.10;;;7.90;97.90;;;;;;5023748;28;20076;-51
2021/12/11 07:19:11;;;;;;;3.25;2.92;;;7.80;97.90;;;;;;5023256;28;20036;-51
2021/12/11 07:21:38;;;;;;;1.63;1.10;;;7.90;97.90;;;;;;5028118;28;20381;-51
2021/12/11 07:24:06;;;;;;;1.13;0.90;;;7.90;97.90;;;;;;5037838;28;20054;-51
2021/12/11 07:26:34;;;;;;;1.00;1.00;;;7.80;97.90;;;;;;5042225;28;20094;-51
2021/12/11 07:29:11;;;;;;;0.77;0.77;;;7.80;97.90;;;;;;5036693;28;20418;-51
2021/12/11 07:31:37;;;;;;;2.50;0.95;;;7.90;97.90;;;;;;5029817;28;20025;-51
2021/12/11 07:34:03;;;;;;;1.15;1.00;;;7.90;97.90;;;;;;5029881;28;20029;-51
2021/12/11 07:36:29;;;;;;;1.02;0.98;;;7.90;97.90;;;;;;5028933;28;20385;-50
2021/12/11 07:38:56;;;;;;;0.90;0.88;;;7.90;97.90;;;;;;5029494;28;20026;-51
2021/12/11 07:41:23;;;;;;;1.88;1.15;;;7.90;97.90;;;;;;5026139;28;20333;-51
2021/12/11 07:43:49;;;;;;;0.82;0.82;;;7.90;97.90;;;;;;5027770;28;20033;-51
2021/12/11 07:46:19;;;;;;;0.95;0.95;;;7.90;97.90;;;;;;5028969;28;20451;-51
2021/12/11 07:48:46;;;;;;;1.20;1.10;;;7.90;97.90;;;;;;5039364;28;20045;-51
2021/12/11 07:51:13;;;;;;;0.95;0.85;;;7.90;97.90;;;;;;5023987;28;20537;-50
2021/12/11 07:53:41;;;;;;;1.75;1.38;;;7.90;97.90;;;;;;5038622;28;20442;-51
2021/12/11 07:56:07;;;;;;;1.20;1.10;;;7.90;97.90;;;;;;5039863;28;20061;-51
2021/12/11 07:58:34;;;;;;;1.08;1.00;;;7.90;97.90;;;;;;5039217;28;20030;-51
2021/12/11 08:01:02;;;;;;;1.98;0.85;;;7.90;97.90;;;;;;5030423;28;20032;-51
2021/12/11 08:03:28;;;;;;;1.50;1.08;;;7.90;97.90;;;;;;5036216;28;20052;-51
2021/12/11 08:05:54;;;;;;;1.75;1.17;;;7.90;98.10;;;;;;5035511;28;20459;-50
2021/12/11 08:08:21;;;;;;;2.85;1.70;;;7.90;97.90;;;;;;5041493;28;20108;-51
2021/12/11 08:10:50;;;;;;;2.15;1.52;;;7.90;97.70;;;;;;5020834;28;20025;-50
2021/12/11 08:13:16;;;;;;;2.00;1.40;;;7.90;97.60;;;;;;5031016;28;20069;-51
2021/12/11 08:15:43;;;;;;;1.70;1.13;;;7.90;97.60;;;;;;5033673;28;20451;-50
2021/12/11 08:18:11;;;;;;;2.63;1.60;;;7.90;97.60;;;;;;5041022;28;20036;-50
2021/12/11 08:20:39;;;;;;;2.88;1.33;;;7.90;97.60;;;;;;5041928;28;20116;-50
2021/12/11 08:23:05;;;;;;;1.52;1.10;;;7.90;97.60;;;;;;5036248;28;20260;-51
2021/12/11 08:25:33;;;;;;;1.73;0.90;;;7.90;97.70;;;;;;5024993;28;20036;-50
2021/12/11 08:28:00;;;;;;;1.10;0.90;;;7.90;97.60;;;;;;5043566;28;20032;-50
2021/12/11 08:30:28;;;;;;;1.17;0.98;;;7.90;97.70;;;;;;5037766;28;20040;-50
2021/12/11 08:32:54;;;;;;;1.00;0.85;;;7.90;97.70;;;;;;5030707;28;20057;-50
2021/12/11 08:35:20;;;;;;;2.60;1.13;;;7.90;97.70;;;;;;5040538;28;20116;-50
2021/12/11 08:37:50;;;;;;;1.30;1.20;;;7.90;97.70;;;;;;5041521;28;20022;-51
2021/12/11 08:40:20;;;;;;;2.83;1.15;;;7.90;97.70;;;;;;5039021;28;20021;-50
2021/12/11 08:42:47;;;;;;;1.50;1.40;;;7.90;97.80;;;;;;5030884;28;20043;-51
2021/12/11 08:45:21;;;;;;;2.08;1.48;;;7.90;97.80;;;;;;5037718;28;20014;-50
2021/12/11 08:47:50;;;;;;;1.95;1.40;;;7.90;97.80;;;;;;5036804;28;20029;-50
2021/12/11 08:50:18;;;;;;;2.40;1.75;;;7.90;97.80;;;;;;5041903;28;20029;-50
2021/12/11 08:52:45;;;;;;;1.30;1.20;;;7.90;97.80;;;;;;5041958;28;20021;-50
2021/12/11 08:55:15;;;;;;;2.03;1.50;;;7.90;97.80;;;;;;5036209;28;20028;-50
2021/12/11 08:57:41;;;;;;;1.15;1.00;;;7.90;97.80;;;;;;5041282;28;20021;-50
2021/12/11 09:00:24;;;;;;;1.52;1.30;;;7.90;97.90;;;;;;5039634;28;20094;-50
2021/12/11 09:02:59;;;;;;;2.00;1.00;;;7.90;97.90;;;;;;5036369;28;20481;-50
2021/12/11 09:05:35;;;;;;;1.70;1.23;;;7.90;97.80;;;;;;5031776;28;20366;-50
2021/12/11 09:08:11;;;;;;;1.88;0.88;;;7.90;97.90;;;;;;5037715;28;20130;-50
2021/12/11 09:10:45;;;;;;;2.42;1.88;;;7.90;97.90;;;;;;5041341;28;20119;-51
2021/12/11 09:13:23;;;;;;;1.70;1.30;;;7.90;97.90;;;;;;5036946;28;20462;-50
2021/12/11 09:15:55;;;;;;;1.77;1.20;;;7.90;97.90;;;;;;5022934;28;20036;-50
2021/12/11 09:18:40;;;;;;;0.80;0.80;;;7.90;98.00;;;;;;5038541;28;20037;-50
2021/12/11 09:21:20;;;;;;;4.57;1.73;;;7.90;98.00;;;;;;5042855;28;20076;-50
2021/12/11 09:24:03;;;;;;;3.13;1.42;;;8.00;98.00;;;;;;5041169;28;20025;-50
2021/12/11 09:26:37;;;;;;;1.10;1.00;;;8.00;98.00;;;;;;5029121;28;20049;-50
2021/12/11 09:29:18;;;;;;;2.03;1.38;;;8.00;98.00;;;;;;5041235;28;20064;-50
2021/12/11 09:32:13;;;;;;;3.25;1.20;;;8.00;98.00;;;;;;5030464;28;20025;-50
2021/12/11 09:34:45;;;;;;;4.35;1.55;;;8.00;98.00;;;;;;5017576;28;20177;-50
2021/12/11 09:37:12;;;;;;;1.98;1.50;;;8.00;98.10;;;;;;5008575;28;20052;-50
2021/12/11 09:39:50;;;;;;;1.58;1.38;;;8.00;98.00;;;;;;5012971;28;20049;-50
2021/12/11 09:42:16;;;;;;;2.08;1.77;;;8.00;98.00;;;;;;5018404;28;20021;-50
2021/12/11 09:44:50;;;;;;;1.77;1.33;;;8.00;98.10;;;;;;5016717;28;20064;-50
2021/12/11 09:47:29;;;;;;;3.30;1.95;;;8.00;98.10;;;;;;5011883;28;20822;-50
2021/12/11 09:50:04;;;;;;;2.30;1.60;;;8.00;98.10;;;;;;5014668;28;20030;-50
2021/12/11 09:52:32;;;;;;;1.90;1.58;;;8.00;98.10;;;;;;5012844;28;20044;-50
2021/12/11 09:55:26;;;;;;;1.58;1.40;;;8.00;98.20;;;;;;5017621;28;20453;-50
2021/12/11 09:57:56;;;;;;;1.40;1.30;;;8.00;98.10;;;;;;5004612;28;20034;-50
2021/12/11 10:00:38;;;;;;;2.58;1.70;;;8.00;98.20;;;;;;5016607;28;20033;-50
2021/12/11 10:03:05;;;;;;;3.55;1.70;;;8.00;98.20;;;;;;5006942;28;20065;-50
2021/12/11 10:05:42;;;;;;;4.38;2.42;;;8.00;98.20;;;;;;5016432;28;20466;-50
2021/12/11 10:08:30;;;;;;;2.33;1.80;;;8.00;98.20;;;;;;5011636;28;20034;-50
2021/12/11 10:10:57;;;;;;;4.05;2.30;;;8.00;98.20;;;;;;5029081;28;20041;-50
2021/12/11 10:13:23;;;;;;;3.20;2.13;;;8.00;98.20;;;;;;5038787;28;20517;-50
2021/12/11 10:15:48;;;;;;;2.75;2.03;;;8.00;98.30;;;;;;5040518;28;20029;-50
2021/12/11 10:18:18;;;;;;;2.95;1.88;;;8.10;98.20;;;;;;5028748;28;20037;-50
2021/12/11 10:21:00;;;;;;;1.73;1.30;;;8.00;98.20;;;;;;5038573;28;20029;-50
2021/12/11 10:23:29;;;;;;;1.88;1.45;;;8.10;98.30;;;;;;5036540;28;20026;-50
2021/12/11 10:25:58;;;;;;;2.00;1.67;;;8.00;98.30;;;;;;5039840;28;20525;-50
2021/12/11 10:28:28;;;;;;;2.08;1.67;;;8.10;98.30;;;;;;5039038;28;20067;-50
2021/12/11 10:31:14;;;;;;;1.77;1.65;;;8.10;98.30;;;;;;5031406;28;20091;-50
2021/12/11 10:33:40;;;;;;;2.53;2.00;;;8.10;98.30;;;;;;5033705;28;20407;-50
2021/12/11 10:36:10;;;;;;;2.25;1.65;;;8.10;98.30;;;;;;5037635;28;20501;-50
2021/12/11 10:38:36;;;;;;;3.95;2.20;;;8.10;98.30;;;;;;5041186;28;20033;-50
2021/12/11 10:41:06;;;;;;;3.47;2.30;;;8.10;98.40;;;;;;5036118;28;20033;-50
2021/12/11 10:43:35;;;;;;;3.67;2.33;;;8.10;98.30;;;;;;5041371;28;20033;-50
2021/12/11 10:46:05;;;;;;;3.70;2.15;;;8.10;98.30;;;;;;5040930;28;20116;-51
2021/12/11 10:48:34;;;;;;;3.55;1.92;;;8.10;98.40;;;;;;5035791;28;20056;-50
2021/12/11 10:51:09;;;;;;;3.72;2.30;;;8.10;98.30;;;;;;5034244;28;20456;-50
2021/12/11 10:53:36;;;;;;;4.07;2.60;;;8.10;98.30;;;;;;5041517;28;20137;-50
2021/12/11 10:56:05;;;;;;;3.97;2.20;;;8.10;98.30;;;;;;5044368;28;20032;-50
2021/12/11 10:58:37;;;;;;;4.07;2.40;;;8.10;98.30;;;;;;5042431;28;20061;-50
2021/12/11 11:01:27;;;;;;;3.55;2.53;;;8.10;98.40;;;;;;5040589;28;20402;-50
2021/12/11 11:04:08;;;;;;;2.92;2.40;;;8.10;98.30;;;;;;5039217;28;20028;-49
2021/12/11 11:06:34;;;;;;;8.88;3.20;;;8.10;98.40;;;;;;5038235;28;20061;-50
2021/12/11 11:09:00;;;;;;;6.35;3.00;;;8.10;98.40;;;;;;5043466;28;20454;-50
2021/12/11 11:11:28;;;;;;;6.72;3.28;;;8.10;98.30;;;;;;5039508;28;20033;-50
2021/12/11 11:13:55;;;;;;;7.18;3.65;;;8.10;98.40;;;;;;5039376;28;20529;-50
2021/12/11 11:16:22;;;;;;;9.40;3.55;;;8.10;98.40;;;;;;5040796;28;20431;-50
2021/12/11 11:18:49;;;;;;;5.93;3.00;;;8.10;98.40;;;;;;5039441;28;20036;-50
2021/12/11 11:21:37;;;;;;;5.93;3.60;;;8.20;98.40;;;;;;5041774;28;20025;-50
2021/12/11 11:24:05;;;;;;;7.75;3.88;;;8.10;98.30;;;;;;5029725;28;20034;-50
2021/12/11 11:26:34;;;;;;;8.25;3.67;;;8.20;98.40;;;;;;5039952;28;20018;-50
2021/12/11 11:29:01;;;;;;;9.10;3.83;;;8.20;98.40;;;;;;5040403;28;20041;-50
2021/12/11 11:31:36;;;;;;;9.70;4.43;;;8.20;98.40;;;;;;5042482;28;20037;-50
2021/12/11 11:34:04;;;;;;;6.60;3.78;;;8.20;98.40;;;;;;5032252;28;20491;-50
2021/12/11 11:36:31;;;;;;;12.93;4.43;;;8.10;98.40;;;;;;5037932;28;20044;-50
2021/12/11 11:39:00;;;;;;;10.18;4.65;;;8.20;98.40;;;;;;5042445;28;20037;-50
2021/12/11 11:41:32;;;;;;;12.20;5.15;;;8.20;98.40;;;;;;5041901;28;20124;-50
2021/12/11 11:43:59;;;;;;;7.57;4.43;;;8.20;98.40;;;;;;5036961;28;20086;-50
2021/12/11 11:46:26;;;;;;;7.95;4.43;;;8.20;98.40;;;;;;5037053;28;20036;-50
2021/12/11 11:48:56;;;;;;;6.90;3.95;;;8.20;98.30;;;;;;5031255;28;20040;-50
2021/12/11 11:51:41;;;;;;;7.90;4.03;;;8.20;98.40;;;;;;5042986;28;20112;-50
2021/12/11 11:54:09;;;;;;;8.80;5.03;;;8.20;98.40;;;;;;5039221;28;20171;-50
2021/12/11 11:56:39;;;;;;;5.07;3.58;;;8.20;98.40;;;;;;5033453;28;20033;-50
2021/12/11 11:59:07;;;;;;;6.20;3.47;;;8.20;98.40;;;;;;5040811;28;20029;-50
2021/12/11 12:01:38;;;;;;;9.18;4.18;;;8.20;98.30;;;;;;5036694;28;20073;-50
2021/12/11 12:04:05;;;;;;;8.77;3.15;;;8.20;98.40;;;;;;5037966;28;20025;-50
2021/12/11 12:06:34;;;;;;;10.75;4.45;;;8.20;98.40;;;;;;5037130;28;20778;-50
2021/12/11 12:09:05;;;;;;;8.65;3.38;;;8.20;98.30;;;;;;5039387;28;20479;-50
2021/12/11 12:11:33;;;;;;;9.82;3.70;;;8.20;98.30;;;;;;5036389;28;20459;-50
2021/12/11 12:14:02;;;;;;;6.72;3.63;;;8.20;98.30;;;;;;5042529;28;20027;-50
2021/12/11 12:16:32;;;;;;;12.98;4.68;;;8.20;98.30;;;;;;5039332;28;20568;-50
2021/12/11 12:18:58;;;;;;;6.22;3.75;;;8.20;98.30;;;;;;5033582;28;20429;-50
2021/12/11 12:21:23;;;;;;;7.80;4.00;;;8.20;98.30;;;;;;5043441;28;20493;-51
2021/12/11 12:23:50;;;;;;;7.38;4.32;;;8.20;98.30;;;;;;5039747;28;20116;-51
2021/12/11 12:26:22;;;;;;;11.98;4.68;;;8.20;98.20;;;;;;5041767;28;20029;-49
2021/12/11 12:28:49;;;;;;;8.98;4.32;;;8.20;98.20;;;;;;5037691;28;20041;-49
2021/12/11 12:31:22;;;;;;;8.18;4.15;;;8.20;98.10;;;;;;5042044;28;20327;-49
2021/12/11 12:33:48;;;;;;;6.28;3.38;;;8.20;98.00;;;;;;5029426;28;20056;-49
2021/12/11 12:36:16;;;;;;;5.97;3.58;;;8.20;97.90;;;;;;5039736;28;20474;-50
2021/12/11 12:38:44;;;;;;;5.47;3.28;;;8.20;97.90;;;;;;5037835;28;20033;-49
2021/12/11 12:41:45;;;;;;;5.97;3.00;;;8.20;97.90;;;;;;5041186;28;20033;-49
2021/12/11 12:44:18;;;;;;;4.07;3.05;;;8.20;97.90;;;;;;5000566;28;20403;-49
2021/12/11 12:46:54;;;;;;;5.85;3.20;;;8.20;98.00;;;;;;4997498;28;20030;-50
2021/12/11 12:49:20;;;;;;;7.07;4.03;;;8.20;98.00;;;;;;4994575;28;20302;-50
2021/12/11 12:51:47;;;;;;;6.93;3.83;;;8.20;98.00;;;;;;4997394;28;20025;-50
2021/12/11 12:54:17;;;;;;;7.50;4.25;;;8.20;98.10;;;;;;4993347;28;20158;-50
2021/12/11 12:57:01;;;;;;;10.60;6.03;;;8.20;98.20;;;;;;4996582;28;20022;-50
2021/12/11 12:59:34;;;;;;;7.68;3.83;;;8.20;98.10;;;;;;4991492;28;20501;-50
2021/12/11 13:02:05;;;;;;;11.57;5.45;;;8.20;98.00;;;;;;4987055;28;20586;-50
2021/12/11 13:04:38;;;;;;;12.20;5.45;;;8.20;98.10;;;;;;4993291;28;20463;-50
2021/12/11 13:07:07;;;;;;;7.70;3.80;;;8.20;98.10;;;;;;4992496;28;20062;-49
2021/12/11 13:09:35;;;;;;;10.85;4.95;;;8.20;98.10;;;;;;4999557;28;20044;-49
2021/12/11 13:12:15;;;;;;;8.40;4.03;;;8.20;98.10;;;;;;4988773;28;20057;-49
2021/12/11 13:14:41;;;;;;;6.25;4.10;;;8.20;98.10;;;;;;4993237;28;20044;-50
2021/12/11 13:17:17;;;;;;;4.97;3.20;;;8.20;98.10;;;;;;4997161;28;20105;-49
2021/12/11 13:19:49;;;;;;;6.80;3.78;;;8.20;98.20;;;;;;5002393;28;20049;-49
2021/12/11 13:22:24;;;;;;;5.50;3.55;;;8.20;98.20;;;;;;5027139;28;20044;-49
2021/12/11 13:24:54;;;;;;;7.03;4.57;;;8.20;98.20;;;;;;5041373;28;20041;-49
2021/12/11 13:27:22;;;;;;;5.75;3.67;;;8.20;98.20;;;;;;5038909;28;20040;-49
2021/12/11 13:29:52;;;;;;;11.30;3.90;;;8.20;98.20;;;;;;5035292;28;20037;-49
2021/12/11 13:32:22;;;;;;;9.95;3.63;;;8.20;98.20;;;;;;5035700;28;20208;-49
2021/12/11 13:34:57;;;;;;;8.65;3.83;;;8.20;98.20;;;;;;5035536;28;20037;-49